Time;durP1;ratioP1;P1;durP2;ratioP2;P2;SDS_P1;SDS_P2;PMS_P1;PMS_P2;Temp;Humidity;BMP_temperature;BMP_pressure;BME280_temperature;BME280_humidity;BME280_pressure;Samples;Min_cycle;Max_cycle;Signal;HPM_P1;HPM_P2
2023/12/03 00:00:08;;;;;;;22.52;11.48;;;1.20;99.90;;;;;;4983428;28;20035;-75
2023/12/03 00:02:35;;;;;;;21.33;11.38;;;1.30;99.90;;;;;;4990238;28;20043;-75
2023/12/03 00:05:02;;;;;;;22.77;11.43;;;1.50;99.90;;;;;;4988368;28;20122;-75
2023/12/03 00:07:29;;;;;;;23.40;11.07;;;1.40;99.90;;;;;;4989471;28;20043;-75
2023/12/03 00:09:58;;;;;;;21.27;11.00;;;1.40;99.90;;;;;;4988115;28;20061;-75
2023/12/03 00:12:24;;;;;;;21.52;10.43;;;1.40;99.90;;;;;;4987997;28;20043;-75
2023/12/03 00:14:50;;;;;;;19.67;10.27;;;1.40;99.90;;;;;;4985671;28;20129;-75
2023/12/03 00:17:15;;;;;;;21.60;11.85;;;1.30;99.90;;;;;;4988035;28;20046;-75
2023/12/03 00:19:41;;;;;;;21.60;11.23;;;1.30;99.90;;;;;;4990118;28;20042;-75
2023/12/03 00:22:08;;;;;;;19.95;11.30;;;1.30;99.90;;;;;;4984675;28;20074;-75
2023/12/03 00:24:34;;;;;;;22.08;11.15;;;1.20;99.90;;;;;;4985784;28;20071;-75
2023/12/03 00:27:00;;;;;;;20.80;10.38;;;1.20;99.90;;;;;;4986075;28;20042;-75
2023/12/03 00:29:25;;;;;;;23.48;11.10;;;1.10;99.90;;;;;;4987679;28;20039;-75
2023/12/03 00:31:54;;;;;;;21.33;11.25;;;1.20;99.90;;;;;;4989793;28;20042;-75
2023/12/03 00:34:20;;;;;;;19.05;10.25;;;1.10;99.90;;;;;;4988916;28;20058;-75
2023/12/03 00:36:46;;;;;;;18.90;10.40;;;1.20;99.90;;;;;;4989541;28;20074;-75
2023/12/03 00:39:11;;;;;;;21.13;10.80;;;1.30;99.90;;;;;;4993960;28;20085;-75
2023/12/03 00:41:38;;;;;;;22.55;10.57;;;1.30;99.90;;;;;;4993026;28;20041;-75
2023/12/03 00:44:04;;;;;;;20.00;10.20;;;1.10;99.90;;;;;;4993268;28;20063;-75
2023/12/03 00:46:29;;;;;;;19.38;10.45;;;1.30;99.90;;;;;;4960319;28;20438;-75
2023/12/03 00:48:55;;;;;;;22.95;10.40;;;1.20;99.90;;;;;;4993407;28;20042;-75
2023/12/03 00:51:21;;;;;;;23.65;10.77;;;1.10;99.90;;;;;;4993068;28;20113;-75
2023/12/03 00:53:46;;;;;;;19.95;10.68;;;1.30;99.90;;;;;;4990537;28;20042;-75
2023/12/03 00:56:12;;;;;;;18.27;9.98;;;1.20;99.90;;;;;;4982461;28;20043;-75
2023/12/03 00:58:38;;;;;;;16.20;10.40;;;1.20;99.90;;;;;;4977324;28;20046;-75
2023/12/03 01:01:04;;;;;;;19.42;10.18;;;1.10;99.90;;;;;;4985515;28;20045;-75
2023/12/03 01:03:30;;;;;;;17.75;9.88;;;1.10;99.90;;;;;;4986716;28;20298;-75
2023/12/03 01:05:56;;;;;;;19.45;9.57;;;1.10;99.90;;;;;;4986361;28;20047;-75
2023/12/03 01:08:22;;;;;;;17.67;8.35;;;1.00;99.90;;;;;;4984289;28;20047;-75
2023/12/03 01:10:48;;;;;;;17.02;9.05;;;1.00;99.90;;;;;;4984422;28;20079;-75
2023/12/03 01:13:13;;;;;;;16.00;9.18;;;1.20;99.90;;;;;;4989111;28;20046;-75
2023/12/03 01:15:39;;;;;;;15.23;7.90;;;1.00;99.90;;;;;;4984452;28;20503;-74
2023/12/03 01:18:04;;;;;;;15.10;9.32;;;1.10;99.90;;;;;;4986170;28;20049;-74
2023/12/03 01:20:30;;;;;;;17.58;9.68;;;1.00;99.90;;;;;;4986294;28;20458;-75
2023/12/03 01:22:56;;;;;;;16.88;8.07;;;0.90;99.90;;;;;;4975879;28;20129;-75
2023/12/03 01:25:21;;;;;;;14.13;8.73;;;1.10;99.90;;;;;;4959519;28;20049;-74
2023/12/03 01:27:47;;;;;;;16.33;8.45;;;0.90;99.90;;;;;;4984713;28;20067;-74
2023/12/03 01:30:13;;;;;;;13.90;7.95;;;1.00;99.90;;;;;;4975195;28;20395;-75
2023/12/03 01:32:39;;;;;;;13.95;8.10;;;1.00;99.90;;;;;;4975464;28;20147;-75
2023/12/03 01:35:05;;;;;;;14.55;8.77;;;1.00;99.90;;;;;;4985561;28;20035;-74
2023/12/03 01:37:32;;;;;;;13.77;7.60;;;1.00;99.90;;;;;;4987157;28;20096;-75
2023/12/03 01:39:57;;;;;;;13.10;7.43;;;0.90;99.90;;;;;;4984785;28;20070;-75
2023/12/03 01:42:24;;;;;;;15.63;8.68;;;1.00;99.90;;;;;;4986730;28;20581;-75
2023/12/03 01:44:51;;;;;;;12.55;6.95;;;0.80;99.90;;;;;;4984476;28;20047;-75
2023/12/03 01:47:17;;;;;;;11.07;6.40;;;0.80;99.90;;;;;;4984045;28;20047;-75
2023/12/03 01:49:44;;;;;;;12.57;7.38;;;0.80;99.90;;;;;;4969207;28;20197;-74
2023/12/03 01:52:12;;;;;;;11.45;6.55;;;1.00;99.90;;;;;;4989753;28;20058;-75
2023/12/03 01:54:42;;;;;;;11.65;6.65;;;0.80;99.90;;;;;;4987801;28;20135;-75
2023/12/03 01:57:08;;;;;;;12.20;6.78;;;0.80;99.90;;;;;;4988369;28;20070;-75
2023/12/03 01:59:34;;;;;;;11.13;6.93;;;0.90;99.90;;;;;;4985294;28;20070;-75
2023/12/03 02:02:03;;;;;;;10.75;6.28;;;0.80;99.90;;;;;;4993829;28;20030;-75
2023/12/03 02:04:29;;;;;;;13.43;6.85;;;0.70;99.90;;;;;;4994567;28;20051;-74
2023/12/03 02:06:55;;;;;;;11.68;5.90;;;1.00;99.90;;;;;;4994189;28;20082;-74
2023/12/03 02:09:21;;;;;;;9.50;6.97;;;0.80;99.90;;;;;;4993077;28;20078;-75
2023/12/03 02:11:47;;;;;;;11.75;7.88;;;0.90;99.90;;;;;;4977632;28;20045;-75
2023/12/03 02:14:14;;;;;;;10.77;6.65;;;0.90;99.90;;;;;;4977176;28;20070;-75
2023/12/03 02:16:47;;;;;;;10.95;6.25;;;0.70;99.90;;;;;;5023653;28;20054;-74
2023/12/03 02:19:13;;;;;;;9.27;6.45;;;0.70;99.90;;;;;;4983303;28;20051;-75
2023/12/03 02:21:39;;;;;;;8.85;6.45;;;0.90;99.90;;;;;;4982976;28;20039;-75
2023/12/03 02:24:05;;;;;;;9.38;5.82;;;0.90;99.90;;;;;;4983424;28;20070;-75
2023/12/03 02:26:30;;;;;;;10.40;6.53;;;0.80;99.90;;;;;;4982142;28;20125;-75
2023/12/03 02:28:56;;;;;;;19.23;6.90;;;0.90;99.90;;;;;;4983309;28;20132;-75
2023/12/03 02:31:22;;;;;;;8.45;5.45;;;0.80;99.90;;;;;;4982735;28;20062;-75
2023/12/03 02:34:05;;;;;;;10.00;6.00;;;0.90;99.90;;;;;;4986336;28;20050;-75
2023/12/03 02:36:31;;;;;;;8.90;5.63;;;0.70;99.90;;;;;;4967819;28;20038;-74
2023/12/03 02:38:56;;;;;;;8.75;5.82;;;0.80;99.90;;;;;;4984297;28;20090;-75
2023/12/03 02:41:22;;;;;;;9.23;6.05;;;0.80;99.90;;;;;;4983959;28;20073;-75
2023/12/03 02:43:48;;;;;;;8.55;6.55;;;0.90;99.90;;;;;;4983783;28;20042;-75
2023/12/03 02:46:14;;;;;;;9.90;6.00;;;0.80;99.90;;;;;;4990448;28;20049;-75
2023/12/03 02:48:39;;;;;;;9.45;5.63;;;0.80;99.90;;;;;;4990285;28;20077;-75
2023/12/03 02:51:05;;;;;;;10.65;6.05;;;0.80;99.90;;;;;;4992625;28;20043;-75
2023/12/03 02:53:31;;;;;;;11.70;6.78;;;0.80;99.90;;;;;;5025909;28;20043;-75
2023/12/03 02:55:58;;;;;;;9.98;6.57;;;0.80;99.90;;;;;;4993512;28;20042;-75
2023/12/03 02:58:24;;;;;;;10.63;6.60;;;0.80;99.90;;;;;;4995001;28;20056;-74
2023/12/03 03:00:49;;;;;;;8.85;5.50;;;0.70;99.90;;;;;;4994605;28;20034;-75
2023/12/03 03:03:15;;;;;;;8.65;5.82;;;0.70;99.90;;;;;;4982330;28;20049;-74
2023/12/03 03:05:41;;;;;;;9.02;5.85;;;0.60;99.90;;;;;;4984696;28;20566;-75
2023/12/03 03:08:06;;;;;;;8.38;5.45;;;0.60;99.90;;;;;;4975819;28;20031;-74
2023/12/03 03:10:32;;;;;;;10.70;6.25;;;0.70;99.90;;;;;;4977425;28;20069;-75
2023/12/03 03:12:58;;;;;;;9.45;5.90;;;0.60;99.90;;;;;;4976539;28;20042;-74
2023/12/03 03:15:23;;;;;;;9.95;6.00;;;0.50;99.90;;;;;;4974246;28;20039;-75
2023/12/03 03:17:49;;;;;;;6.88;4.75;;;0.50;99.90;;;;;;4974128;28;20047;-74
2023/12/03 03:20:17;;;;;;;7.53;5.32;;;0.70;99.90;;;;;;4974566;28;20491;-74
2023/12/03 03:22:42;;;;;;;8.88;5.43;;;0.60;99.90;;;;;;4974519;28;20046;-74
2023/12/03 03:25:09;;;;;;;8.10;5.15;;;0.60;99.90;;;;;;4957655;28;20053;-74
2023/12/03 03:27:34;;;;;;;7.45;5.25;;;0.60;99.90;;;;;;4972942;28;20473;-74
2023/12/03 03:30:00;;;;;;;8.90;6.03;;;0.60;99.90;;;;;;4957123;28;20047;-75
2023/12/03 03:32:26;;;;;;;9.13;5.35;;;0.60;99.90;;;;;;4956803;28;20046;-74
2023/12/03 03:34:51;;;;;;;9.65;4.78;;;0.60;99.90;;;;;;4974212;28;20046;-74
2023/12/03 03:37:17;;;;;;;9.23;5.78;;;0.50;99.90;;;;;;4972694;28;20043;-74
2023/12/03 03:39:42;;;;;;;10.13;5.63;;;0.40;99.90;;;;;;4974620;28;20536;-74
2023/12/03 03:42:08;;;;;;;8.18;5.18;;;0.40;99.90;;;;;;4981476;28;20031;-75
2023/12/03 03:44:34;;;;;;;8.23;5.60;;;0.50;99.90;;;;;;4980190;28;20106;-75
2023/12/03 03:47:00;;;;;;;7.13;5.57;;;0.50;99.90;;;;;;4979872;28;20074;-75
2023/12/03 03:49:26;;;;;;;7.93;5.40;;;0.50;99.90;;;;;;4981729;28;20038;-74
2023/12/03 03:51:51;;;;;;;9.32;5.93;;;0.30;99.90;;;;;;4980649;28;20495;-74
2023/12/03 03:54:17;;;;;;;9.43;5.93;;;0.40;99.90;;;;;;4979699;28;20490;-74
2023/12/03 03:56:49;;;;;;;10.57;6.75;;;0.40;99.90;;;;;;4962795;28;20034;-75
2023/12/03 03:59:15;;;;;;;12.45;6.18;;;0.40;99.90;;;;;;4979968;28;20043;-74
2023/12/03 04:01:44;;;;;;;9.88;5.68;;;0.30;99.90;;;;;;4981384;28;20054;-74
2023/12/03 04:04:11;;;;;;;9.65;6.30;;;0.40;99.90;;;;;;4988679;28;20038;-75
2023/12/03 04:06:44;;;;;;;12.52;6.70;;;0.50;99.90;;;;;;4987851;28;20046;-75
2023/12/03 04:09:10;;;;;;;12.45;8.13;;;0.40;99.90;;;;;;4996444;28;20050;-74
2023/12/03 04:11:44;;;;;;;16.13;8.23;;;0.50;99.90;;;;;;4991377;28;20057;-74
2023/12/03 04:14:16;;;;;;;;;;;0.30;99.90;;;;;;4991355;28;20043;-74
2023/12/03 04:16:43;;;;;;;20.67;10.88;;;0.40;99.90;;;;;;4990453;28;19929;-74
2023/12/03 04:19:08;;;;;;;21.63;10.93;;;0.60;99.90;;;;;;4988634;28;20057;-74
2023/12/03 04:21:36;;;;;;;19.88;12.05;;;0.60;99.90;;;;;;4973763;28;20114;-74
2023/12/03 04:24:02;;;;;;;21.67;13.23;;;0.50;99.90;;;;;;4966083;28;20043;-74
2023/12/03 04:26:28;;;;;;;29.40;15.90;;;0.50;99.90;;;;;;5004660;28;20046;-74
2023/12/03 04:28:53;;;;;;;40.47;17.50;;;0.70;99.90;;;;;;5014415;28;20401;-74
2023/12/03 04:31:22;;;;;;;31.38;19.42;;;0.80;99.90;;;;;;5002630;28;20086;-74
2023/12/03 04:33:54;;;;;;;39.63;21.33;;;0.70;99.90;;;;;;5005786;28;20093;-74
2023/12/03 04:36:22;;;;;;;51.78;25.90;;;0.90;99.90;;;;;;5007251;28;20040;-74
2023/12/03 04:38:48;;;;;;;48.08;25.48;;;0.80;99.90;;;;;;5007400;28;20042;-74
2023/12/03 04:41:14;;;;;;;53.72;27.25;;;0.80;99.90;;;;;;5008064;28;20039;-74
2023/12/03 04:43:40;;;;;;;56.10;27.35;;;0.90;99.90;;;;;;5008641;28;20038;-74
2023/12/03 04:46:07;;;;;;;57.10;27.60;;;0.70;99.90;;;;;;5002093;28;20411;-74
2023/12/03 04:48:34;;;;;;;56.47;30.55;;;0.90;99.90;;;;;;5006459;28;20078;-74
2023/12/03 04:51:00;;;;;;;63.13;33.40;;;1.00;99.90;;;;;;4993319;28;20569;-74
2023/12/03 04:53:26;;;;;;;75.38;34.20;;;1.00;99.90;;;;;;5001886;28;20031;-75
2023/12/03 04:55:52;;;;;;;78.07;35.97;;;0.90;99.90;;;;;;5009107;28;20042;-75
2023/12/03 04:58:17;;;;;;;82.07;36.05;;;1.00;99.90;;;;;;4972674;28;20047;-75
2023/12/03 05:00:43;;;;;;;77.90;33.75;;;1.00;99.90;;;;;;4971256;28;20054;-75
2023/12/03 05:03:09;;;;;;;82.63;37.03;;;1.10;99.90;;;;;;4963083;28;20039;-75
2023/12/03 05:05:34;;;;;;;78.55;35.50;;;1.00;99.90;;;;;;4960536;29;20046;-75
2023/12/03 05:08:00;;;;;;;99.00;41.30;;;0.90;99.90;;;;;;4973786;29;20043;-75
2023/12/03 05:10:26;;;;;;;74.72;33.90;;;1.20;99.90;;;;;;4973041;29;20098;-75
2023/12/03 05:12:52;;;;;;;77.88;36.30;;;0.90;99.90;;;;;;4971812;28;20098;-75
2023/12/03 05:15:17;;;;;;;75.43;38.63;;;1.00;99.90;;;;;;4963321;28;20470;-75
2023/12/03 05:17:43;;;;;;;67.28;32.53;;;0.90;99.90;;;;;;4970484;29;20043;-75
2023/12/03 05:20:09;;;;;;;77.53;32.45;;;0.80;99.90;;;;;;4969906;28;20047;-75
2023/12/03 05:22:35;;;;;;;65.22;29.65;;;1.10;99.90;;;;;;4970934;28;20046;-75
2023/12/03 05:25:01;;;;;;;50.13;25.20;;;1.00;99.90;;;;;;4971096;28;20090;-75
2023/12/03 05:27:26;;;;;;;49.20;24.20;;;1.00;99.90;;;;;;4971357;29;20071;-75
2023/12/03 05:29:52;;;;;;;38.13;19.05;;;1.10;99.90;;;;;;4972664;28;20046;-75
2023/12/03 05:32:17;;;;;;;37.70;18.25;;;1.20;99.90;;;;;;4972908;29;20047;-75
2023/12/03 05:34:47;;;;;;;53.47;19.67;;;1.40;99.90;;;;;;4975161;28;20054;-75
2023/12/03 05:37:13;;;;;;;33.53;15.95;;;1.00;99.90;;;;;;4975166;28;20112;-75
2023/12/03 05:39:39;;;;;;;36.00;16.98;;;1.30;99.90;;;;;;4974348;28;20050;-75
2023/12/03 05:42:05;;;;;;;31.13;16.50;;;1.10;99.90;;;;;;4973905;28;20039;-75
2023/12/03 05:44:30;;;;;;;33.92;16.33;;;1.00;99.90;;;;;;4972087;28;20071;-75
2023/12/03 05:46:56;;;;;;;27.95;14.95;;;1.30;99.90;;;;;;4971916;29;20228;-75
2023/12/03 05:49:22;;;;;;;33.20;16.48;;;1.30;99.90;;;;;;4972099;28;20054;-75
2023/12/03 05:51:48;;;;;;;33.63;15.48;;;1.10;99.90;;;;;;4991956;28;20019;-76
2023/12/03 05:54:14;;;;;;;28.10;15.25;;;1.10;99.90;;;;;;5001017;28;20068;-76
2023/12/03 05:56:40;;;;;;;35.63;15.27;;;1.30;99.90;;;;;;5000488;28;20074;-75
2023/12/03 05:59:05;;;;;;;28.40;15.40;;;1.30;99.90;;;;;;5002698;28;20503;-76
2023/12/03 06:01:31;;;;;;;29.48;15.43;;;1.50;99.90;;;;;;5003880;28;20046;-76
2023/12/03 06:03:58;;;;;;;29.98;15.70;;;1.30;99.90;;;;;;5001138;28;20042;-75
2023/12/03 06:06:24;;;;;;;30.55;16.17;;;1.60;99.90;;;;;;5003440;28;20118;-76
2023/12/03 06:08:50;;;;;;;37.65;15.98;;;1.60;99.90;;;;;;5003520;28;20038;-75
2023/12/03 06:11:16;;;;;;;30.58;13.95;;;1.30;99.90;;;;;;5010282;28;20042;-76
2023/12/03 06:13:41;;;;;;;28.48;14.63;;;1.50;99.90;;;;;;5013035;28;20054;-76
2023/12/03 06:16:07;;;;;;;36.53;16.55;;;1.40;99.90;;;;;;5007952;28;20038;-75
2023/12/03 06:18:34;;;;;;;35.13;16.05;;;1.60;99.90;;;;;;4991157;28;20046;-76
2023/12/03 06:20:59;;;;;;;35.95;16.25;;;1.70;99.90;;;;;;5009927;28;20045;-75
2023/12/03 06:23:26;;;;;;;32.72;15.95;;;1.70;99.90;;;;;;5011290;28;20034;-75
2023/12/03 06:25:51;;;;;;;38.78;17.55;;;1.70;99.90;;;;;;5011269;28;20142;-76
2023/12/03 06:28:17;;;;;;;46.20;19.55;;;1.70;99.90;;;;;;5014735;28;20130;-76
2023/12/03 06:30:42;;;;;;;43.42;19.60;;;1.50;99.90;;;;;;5015148;28;20066;-76
2023/12/03 06:33:08;;;;;;;41.72;20.02;;;1.80;99.90;;;;;;5014323;28;20030;-75
2023/12/03 06:35:34;;;;;;;50.50;22.88;;;1.70;99.90;;;;;;5009212;28;20042;-75
2023/12/03 06:37:59;;;;;;;58.72;23.45;;;1.70;99.90;;;;;;5022758;28;20045;-76
2023/12/03 06:40:25;;;;;;;72.78;27.02;;;1.50;99.90;;;;;;4983146;28;20042;-75
2023/12/03 06:42:51;;;;;;;70.30;26.80;;;1.60;99.90;;;;;;5010885;28;20121;-75
2023/12/03 06:45:16;;;;;;;71.25;27.58;;;1.50;99.90;;;;;;5000523;28;20045;-76
2023/12/03 06:47:42;;;;;;;71.43;29.77;;;1.70;99.90;;;;;;5004993;28;20038;-76
2023/12/03 06:50:07;;;;;;;87.07;27.98;;;1.50;99.90;;;;;;5000819;28;20043;-75
2023/12/03 06:52:33;;;;;;;81.72;31.88;;;1.70;99.90;;;;;;5003936;28;20070;-76
2023/12/03 06:54:59;;;;;;;75.63;29.75;;;1.80;99.90;;;;;;5005238;28;20038;-76
2023/12/03 06:57:25;;;;;;;65.32;24.13;;;1.50;99.90;;;;;;5004602;28;20046;-76
2023/12/03 06:59:50;;;;;;;59.70;23.08;;;1.60;99.90;;;;;;5005843;28;20042;-75
2023/12/03 07:02:16;;;;;;;44.88;19.30;;;1.80;99.90;;;;;;5011196;28;20057;-76
2023/12/03 07:04:42;;;;;;;41.53;18.05;;;1.70;99.90;;;;;;5009485;28;20097;-76
2023/12/03 07:07:07;;;;;;;44.67;18.35;;;1.80;99.90;;;;;;5011025;28;20046;-75
2023/12/03 07:09:33;;;;;;;38.88;16.25;;;1.60;99.90;;;;;;5011348;28;20037;-76
2023/12/03 07:11:59;;;;;;;36.13;15.00;;;1.60;99.90;;;;;;5010759;28;20066;-76
2023/12/03 07:14:25;;;;;;;33.80;14.52;;;1.70;99.90;;;;;;5011527;28;20387;-75
2023/12/03 07:16:50;;;;;;;38.95;16.75;;;1.80;99.90;;;;;;5009681;28;20073;-75
2023/12/03 07:19:16;;;;;;;34.78;15.38;;;1.50;99.90;;;;;;5008230;28;20046;-75
2023/12/03 07:21:41;;;;;;;36.80;15.13;;;1.60;99.90;;;;;;5008489;28;20121;-75
2023/12/03 07:24:07;;;;;;;39.10;15.40;;;1.70;99.90;;;;;;5006519;28;20038;-76
2023/12/03 07:26:33;;;;;;;37.70;15.05;;;1.90;99.90;;;;;;4995382;28;20053;-75
2023/12/03 07:28:59;;;;;;;36.05;14.63;;;1.80;99.90;;;;;;5004711;28;20042;-76
2023/12/03 07:31:25;;;;;;;37.47;15.88;;;1.80;99.90;;;;;;5004971;28;20038;-75
2023/12/03 07:33:51;;;;;;;41.97;15.82;;;1.80;99.90;;;;;;5007021;28;20057;-75
2023/12/03 07:36:16;;;;;;;33.17;14.10;;;1.90;99.90;;;;;;5006856;28;20077;-75
2023/12/03 07:38:42;;;;;;;38.65;16.52;;;1.90;99.90;;;;;;5006420;28;20050;-75
2023/12/03 07:41:11;;;;;;;39.95;15.57;;;2.00;99.90;;;;;;4994125;28;20050;-76
2023/12/03 07:43:37;;;;;;;34.08;13.93;;;1.90;99.90;;;;;;5007015;28;20097;-75
2023/12/03 07:46:03;;;;;;;44.10;15.48;;;1.70;99.90;;;;;;5007813;28;20034;-75
2023/12/03 07:48:29;;;;;;;35.10;14.55;;;1.70;99.90;;;;;;5007290;28;20042;-76
2023/12/03 07:50:54;;;;;;;37.55;16.23;;;1.80;99.90;;;;;;5007091;28;20073;-78
2023/12/03 07:53:20;;;;;;;40.42;17.77;;;1.90;99.90;;;;;;5005884;28;20042;-75
2023/12/03 07:55:45;;;;;;;43.28;16.92;;;1.80;99.90;;;;;;4995980;28;20509;-79
2023/12/03 07:58:11;;;;;;;46.25;19.25;;;1.80;99.90;;;;;;5000022;28;20070;-76
2023/12/03 08:00:38;;;;;;;46.42;17.60;;;2.00;99.90;;;;;;4995293;28;20034;-75
2023/12/03 08:03:04;;;;;;;45.75;18.85;;;1.90;99.90;;;;;;4994995;28;20114;-76
2023/12/03 08:05:30;;;;;;;48.42;20.70;;;2.10;99.90;;;;;;4992804;28;20074;-75
2023/12/03 08:07:56;;;;;;;38.22;17.35;;;2.10;99.90;;;;;;4992690;28;20046;-75
2023/12/03 08:10:21;;;;;;;42.17;17.55;;;2.00;99.90;;;;;;4976921;28;20042;-75
2023/12/03 08:12:47;;;;;;;43.38;17.85;;;1.90;99.90;;;;;;4994682;28;20057;-75
2023/12/03 08:15:13;;;;;;;49.15;17.33;;;1.90;99.90;;;;;;4975393;28;20444;-75
2023/12/03 08:17:38;;;;;;;43.83;18.50;;;2.00;99.90;;;;;;4991782;28;20654;-76
2023/12/03 08:20:05;;;;;;;43.65;17.83;;;2.10;99.90;;;;;;4977582;28;20034;-76
2023/12/03 08:22:32;;;;;;;39.42;14.70;;;2.00;99.90;;;;;;4993809;28;20070;-76
2023/12/03 08:24:57;;;;;;;45.50;16.65;;;2.00;99.90;;;;;;4992314;28;20046;-75
2023/12/03 08:27:23;;;;;;;43.22;15.57;;;2.10;99.90;;;;;;4992915;28;20049;-76
2023/12/03 08:29:49;;;;;;;43.13;17.15;;;2.10;99.90;;;;;;4997872;28;20054;-76
2023/12/03 08:32:14;;;;;;;41.58;15.00;;;2.00;99.90;;;;;;4991764;28;20453;-76
2023/12/03 08:34:40;;;;;;;46.72;15.68;;;2.10;99.90;;;;;;4991032;28;20084;-76
2023/12/03 08:37:05;;;;;;;44.55;17.40;;;2.10;99.90;;;;;;4991619;28;20554;-75
2023/12/03 08:39:31;;;;;;;38.63;16.50;;;2.10;99.90;;;;;;4992838;28;20038;-76
2023/12/03 08:41:57;;;;;;;42.38;14.30;;;1.90;99.90;;;;;;4958009;28;20403;-76
2023/12/03 08:44:23;;;;;;;35.08;14.60;;;1.90;99.90;;;;;;4957411;28;20030;-76
2023/12/03 08:46:49;;;;;;;42.28;16.45;;;1.90;99.90;;;;;;4973150;28;20042;-76
2023/12/03 08:49:15;;;;;;;38.67;14.52;;;2.20;99.90;;;;;;4976641;28;20049;-76
2023/12/03 08:51:40;;;;;;;41.58;13.18;;;2.20;99.90;;;;;;4976738;28;20046;-76
2023/12/03 08:54:06;;;;;;;35.40;12.73;;;2.10;99.90;;;;;;4977023;28;20042;-76
2023/12/03 08:56:31;;;;;;;45.00;17.15;;;2.00;99.90;;;;;;4973549;28;20046;-75
2023/12/03 08:58:57;;;;;;;38.25;16.83;;;2.20;99.90;;;;;;4964340;28;20107;-76
2023/12/03 09:01:23;;;;;;;38.80;15.40;;;2.10;99.90;;;;;;4968599;28;20035;-76
2023/12/03 09:03:49;;;;;;;43.83;16.92;;;2.30;99.90;;;;;;4972301;28;20031;-77
2023/12/03 09:06:16;;;;;;;42.63;16.52;;;2.10;99.90;;;;;;4977000;28;20042;-77
2023/12/03 09:08:41;;;;;;;44.03;16.20;;;2.10;99.90;;;;;;4976166;28;20673;-77
2023/12/03 09:11:07;;;;;;;44.67;15.43;;;2.20;99.90;;;;;;4975564;28;20039;-78
2023/12/03 09:13:33;;;;;;;42.15;15.20;;;2.10;99.90;;;;;;4976973;28;20039;-78
2023/12/03 09:15:59;;;;;;;46.47;16.33;;;2.40;99.90;;;;;;4973675;28;20040;-77
2023/12/03 09:18:24;;;;;;;41.85;15.65;;;2.20;99.90;;;;;;4956322;28;20039;-76
2023/12/03 09:20:50;;;;;;;36.60;14.85;;;2.30;99.90;;;;;;4970339;28;20049;-77
2023/12/03 09:23:17;;;;;;;42.60;16.88;;;2.10;99.90;;;;;;4952067;29;20039;-78
2023/12/03 09:25:43;;;;;;;41.95;14.50;;;2.20;99.90;;;;;;4973735;28;20533;-76
2023/12/03 09:28:10;;;;;;;36.85;15.30;;;2.20;99.90;;;;;;4958712;28;20070;-77
2023/12/03 09:30:36;;;;;;;38.85;15.27;;;2.40;99.90;;;;;;4974589;28;20046;-77
2023/12/03 09:33:01;;;;;;;39.38;15.95;;;2.50;99.90;;;;;;4962686;28;20050;-78
2023/12/03 09:35:30;;;;;;;43.35;15.77;;;2.30;99.90;;;;;;4975130;28;20039;-76
2023/12/03 09:37:56;;;;;;;39.05;16.30;;;2.50;99.90;;;;;;4975896;28;20146;-78
2023/12/03 09:40:22;;;;;;;38.72;15.20;;;2.30;99.90;;;;;;4974521;28;20100;-77
2023/12/03 09:42:48;;;;;;;42.00;16.85;;;2.60;99.90;;;;;;4973347;28;20047;-78
2023/12/03 09:45:15;;;;;;;44.42;15.75;;;2.60;99.90;;;;;;4968010;28;20628;-77
2023/12/03 09:47:53;;;;;;;37.88;15.32;;;2.40;99.90;;;;;;4976331;28;20086;-77
2023/12/03 09:50:19;;;;;;;33.95;14.55;;;2.50;99.90;;;;;;4976540;28;20050;-77
2023/12/03 09:52:51;;;;;;;50.40;17.67;;;2.60;99.90;;;;;;4971636;28;20053;-77
2023/12/03 09:55:18;;;;;;;38.95;16.45;;;2.60;99.90;;;;;;4954018;28;20075;-77
2023/12/03 09:57:45;;;;;;;46.00;16.33;;;2.70;99.90;;;;;;4970539;28;20458;-77
2023/12/03 10:00:11;;;;;;;38.42;17.45;;;2.80;99.90;;;;;;4975409;28;20034;-76
2023/12/03 10:02:37;;;;;;;42.45;16.02;;;2.80;99.90;;;;;;4974779;28;20050;-76
2023/12/03 10:05:03;;;;;;;47.55;17.10;;;2.60;99.90;;;;;;4971844;28;20455;-77
2023/12/03 10:07:29;;;;;;;44.03;17.80;;;2.90;99.90;;;;;;4966296;28;20538;-77
2023/12/03 10:09:59;;;;;;;42.55;17.23;;;2.80;99.90;;;;;;4972855;28;20515;-78
2023/12/03 10:12:28;;;;;;;48.88;19.85;;;2.70;99.90;;;;;;4964385;28;20122;-76
2023/12/03 10:14:57;;;;;;;48.13;18.52;;;2.90;99.90;;;;;;4960386;28;20043;-77
2023/12/03 10:17:22;;;;;;;42.30;17.42;;;2.80;99.90;;;;;;4976279;28;20066;-77
2023/12/03 10:19:48;;;;;;;43.60;17.52;;;2.90;99.90;;;;;;4958924;28;20503;-77
2023/12/03 10:22:13;;;;;;;49.22;19.50;;;2.90;99.90;;;;;;4963996;28;20035;-76
2023/12/03 10:24:47;;;;;;;45.30;18.95;;;2.80;99.90;;;;;;4945829;29;20039;-77
2023/12/03 10:27:13;;;;;;;48.08;21.63;;;2.80;99.90;;;;;;4958013;28;20039;-76
2023/12/03 10:29:38;;;;;;;44.70;18.85;;;3.10;99.90;;;;;;4973917;28;20035;-76
2023/12/03 10:32:07;;;;;;;47.97;22.08;;;2.90;99.90;;;;;;4973404;28;20561;-77
2023/12/03 10:34:33;;;;;;;48.00;20.02;;;3.00;99.90;;;;;;4972103;28;20042;-76
2023/12/03 10:37:01;;;;;;;50.65;21.35;;;3.10;99.90;;;;;;4955826;28;20118;-76
2023/12/03 10:39:26;;;;;;;48.40;21.65;;;3.20;99.90;;;;;;4952315;28;20515;-76
2023/12/03 10:41:52;;;;;;;49.33;21.48;;;3.00;99.90;;;;;;4952150;29;20069;-76
2023/12/03 10:44:19;;;;;;;51.60;21.25;;;3.10;99.90;;;;;;4975053;28;20039;-76
2023/12/03 10:46:45;;;;;;;45.67;20.98;;;3.10;99.90;;;;;;4964763;28;20042;-75
2023/12/03 10:49:12;;;;;;;49.75;22.80;;;3.20;99.90;;;;;;4946092;28;20110;-75
2023/12/03 10:51:41;;;;;;;47.78;20.75;;;3.10;99.90;;;;;;4962299;28;20035;-76
2023/12/03 10:54:06;;;;;;;46.80;22.02;;;3.20;99.90;;;;;;4967120;28;20577;-76
2023/12/03 10:56:33;;;;;;;48.88;23.13;;;3.20;99.90;;;;;;4971841;28;20121;-77
2023/12/03 10:59:09;;;;;;;48.13;22.70;;;3.30;99.90;;;;;;4975910;28;20050;-76
2023/12/03 11:01:39;;;;;;;40.63;19.00;;;3.30;99.90;;;;;;4971127;28;20061;-77
2023/12/03 11:04:25;;;;;;;48.85;21.80;;;3.20;99.90;;;;;;4975981;28;20053;-78
2023/12/03 11:06:52;;;;;;;46.70;20.50;;;3.20;99.90;;;;;;4974994;28;20078;-78
2023/12/03 11:09:18;;;;;;;47.80;21.00;;;3.20;99.90;;;;;;4968171;28;20190;-76
2023/12/03 11:11:45;;;;;;;44.90;20.80;;;3.40;99.90;;;;;;4969771;28;20172;-75
2023/12/03 11:14:10;;;;;;;45.15;19.95;;;3.40;99.90;;;;;;4962911;28;20554;-75
2023/12/03 11:17:00;;;;;;;42.45;19.25;;;3.40;99.90;;;;;;4956360;28;20042;-75
2023/12/03 11:19:28;;;;;;;40.25;19.85;;;3.40;99.90;;;;;;4968776;28;20071;-77
2023/12/03 11:21:57;;;;;;;45.15;21.13;;;3.40;99.90;;;;;;4973082;28;20108;-78
2023/12/03 11:25:06;;;;;;;42.20;20.60;;;3.50;99.90;;;;;;4970591;28;20154;-78
2023/12/03 11:27:32;;;;;;;45.20;20.02;;;3.40;99.90;;;;;;4958827;28;20384;-77
2023/12/03 11:29:59;;;;;;;46.80;20.75;;;3.40;99.90;;;;;;4954416;28;20050;-77
2023/12/03 11:32:25;;;;;;;43.58;21.17;;;3.50;99.90;;;;;;4953114;29;20049;-77
2023/12/03 11:35:05;;;;;;;46.58;20.85;;;3.40;99.90;;;;;;4964784;28;20073;-77
2023/12/03 11:37:31;;;;;;;44.63;21.80;;;3.40;99.90;;;;;;4946195;28;20435;-77
2023/12/03 11:40:09;;;;;;;44.15;21.50;;;3.40;99.90;;;;;;4974166;28;20073;-77
2023/12/03 11:42:45;;;;;;;42.10;21.45;;;3.40;99.90;;;;;;4960818;28;20034;-76
2023/12/03 11:45:20;;;;;;;44.03;20.40;;;3.40;99.90;;;;;;4969486;28;20043;-75
2023/12/03 11:48:06;;;;;;;41.13;21.40;;;3.30;99.90;;;;;;4972357;28;20053;-75
2023/12/03 11:50:35;;;;;;;45.08;21.42;;;3.50;99.90;;;;;;4956606;28;20042;-77
2023/12/03 11:53:00;;;;;;;47.72;22.08;;;3.40;99.90;;;;;;4973688;28;20038;-76
2023/12/03 11:55:27;;;;;;;42.80;20.65;;;3.50;99.90;;;;;;4978020;28;20038;-77
2023/12/03 11:57:54;;;;;;;41.35;21.90;;;3.40;99.90;;;;;;4958766;28;20043;-76
2023/12/03 12:00:20;;;;;;;43.13;22.80;;;3.60;99.90;;;;;;4975659;28;20078;-76
2023/12/03 12:02:45;;;;;;;42.90;22.08;;;3.50;99.90;;;;;;4977133;28;20045;-77
2023/12/03 12:05:11;;;;;;;38.85;20.15;;;3.40;99.90;;;;;;4991440;28;20051;-77
2023/12/03 12:07:36;;;;;;;43.25;21.58;;;3.60;99.90;;;;;;4972203;28;20054;-76
2023/12/03 12:10:04;;;;;;;41.40;21.08;;;3.50;99.90;;;;;;4972267;28;20071;-76
2023/12/03 12:12:30;;;;;;;38.30;19.85;;;3.40;99.90;;;;;;4976605;28;20043;-76
2023/12/03 12:14:56;;;;;;;42.00;19.55;;;3.40;99.90;;;;;;4973236;28;20149;-75
2023/12/03 12:17:22;;;;;;;35.17;19.77;;;3.30;99.90;;;;;;4973249;28;20057;-77
2023/12/03 12:19:49;;;;;;;38.15;19.48;;;3.30;99.90;;;;;;4973104;28;20050;-77
2023/12/03 12:22:16;;;;;;;36.08;19.48;;;3.40;99.90;;;;;;4974204;28;20074;-75
2023/12/03 12:24:42;;;;;;;37.33;19.08;;;3.30;99.90;;;;;;4959711;28;20056;-77
2023/12/03 12:27:08;;;;;;;38.67;19.95;;;3.20;99.90;;;;;;4975762;28;20034;-76
2023/12/03 12:29:34;;;;;;;33.22;17.88;;;3.30;99.90;;;;;;4963227;28;20395;-75
2023/12/03 12:32:00;;;;;;;32.58;18.27;;;3.20;99.90;;;;;;4978279;28;20034;-77
2023/12/03 12:34:27;;;;;;;38.03;18.63;;;3.30;99.90;;;;;;4980994;28;20035;-77
2023/12/03 12:37:05;;;;;;;35.75;19.05;;;3.20;99.90;;;;;;4978458;28;20043;-78